TimeCDT,TemperatureF,Dew PointF,Humidity,Sea Level PressureIn,VisibilityMPH,Wind Direction,Wind SpeedMPH,Gust SpeedMPH,PrecipitationIn,Events,Conditions,WindDirDegrees,DateUTC
12:53 AM,35.1,28.9,78,30.18,10.0,South,6.9,-,N/A,,Clear,190,2012-10-08 05:53:00
1:53 AM,35.1,28.9,78,30.19,10.0,SSW,8.1,-,N/A,,Clear,210,2012-10-08 06:53:00
2:53 AM,35.1,30.0,82,30.18,10.0,SSW,5.8,-,N/A,,Clear,210,2012-10-08 07:53:00
3:53 AM,35.1,30.0,82,30.18,10.0,SSW,3.5,-,N/A,,Clear,210,2012-10-08 08:53:00
4:53 AM,30.9,28.0,89,30.19,9.0,SW,6.9,-,N/A,,Clear,220,2012-10-08 09:53:00
5:53 AM,32.0,28.9,88,30.19,6.0,SW,4.6,-,N/A,,Clear,220,2012-10-08 10:53:00
6:53 AM,32.0,28.9,88,30.19,10.0,SSW,6.9,-,N/A,,Clear,210,2012-10-08 11:53:00
7:53 AM,35.1,30.9,85,30.21,10.0,SSW,9.2,-,N/A,,Clear,210,2012-10-08 12:53:00
8:53 AM,41.0,33.1,73,30.21,10.0,SW,11.5,-,N/A,,Clear,220,2012-10-08 13:53:00
9:53 AM,44.1,35.1,71,30.22,10.0,SW,10.4,-,N/A,,Clear,220,2012-10-08 14:53:00
10:53 AM,50.0,36.0,59,30.20,10.0,South,9.2,-,N/A,,Clear,190,2012-10-08 15:53:00
11:53 AM,53.1,33.1,47,30.19,10.0,SSW,12.7,20.7,N/A,,Clear,200,2012-10-08 16:53:00
12:53 PM,55.0,33.1,43,30.16,10.0,South,8.1,-,N/A,,Clear,190,2012-10-08 17:53:00
1:53 PM,57.0,34.0,42,30.13,10.0,SW,10.4,20.7,N/A,,Clear,220,2012-10-08 18:53:00
2:53 PM,57.9,33.1,39,30.10,10.0,SSW,11.5,-,N/A,,Clear,200,2012-10-08 19:53:00
3:53 PM,57.9,34.0,41,30.08,10.0,SW,10.4,16.1,N/A,,Clear,220,2012-10-08 20:53:00
4:53 PM,57.9,35.1,42,30.07,10.0,South,13.8,-,N/A,,Clear,190,2012-10-08 21:53:00
5:53 PM,55.9,34.0,44,30.06,10.0,SSW,11.5,-,N/A,,Clear,200,2012-10-08 22:53:00
6:53 PM,48.9,36.0,61,30.05,10.0,South,9.2,-,N/A,,Clear,180,2012-10-08 23:53:00
7:53 PM,46.9,35.1,63,30.06,10.0,South,5.8,-,N/A,,Clear,180,2012-10-09 00:53:00
8:53 PM,46.4,35.6,66,30.05,10.0,South,9.2,-,N/A,,Clear,190,2012-10-09 01:53:00
9:53 PM,46.9,36.0,66,30.07,10.0,South,9.2,-,N/A,,Clear,190,2012-10-09 02:53:00
10:53 PM,46.9,37.0,68,30.06,10.0,South,9.2,-,N/A,,Clear,190,2012-10-09 03:53:00
11:53 PM,46.0,37.0,71,30.06,10.0,SSW,10.4,-,N/A,,Clear,200,2012-10-09 04:53:00